Time;durP1;ratioP1;P1;durP2;ratioP2;P2;SDS_P1;SDS_P2;PMS_P1;PMS_P2;Temp;Humidity;BMP_temperature;BMP_pressure;BME280_temperature;BME280_humidity;BME280_pressure;Samples;Min_cycle;Max_cycle;Signal;HPM_P1;HPM_P2
2022/08/25 03:00:16;;;;;;;6.47;3.93;;;20.40;99.90;;;;;;6002755;23;21022;31
2022/08/25 03:02:42;;;;;;;6.93;3.35;;;20.40;99.90;;;;;;4862383;29;20061;-84
2022/08/25 03:05:10;;;;;;;10.10;4.25;;;20.40;99.90;;;;;;4848066;29;20511;-84
2022/08/25 03:07:37;;;;;;;5.45;3.55;;;20.40;99.90;;;;;;4863533;29;20124;-84
2022/08/25 03:10:15;;;;;;;7.43;4.13;;;20.40;99.90;;;;;;4863978;29;20049;-85
2022/08/25 03:12:41;;;;;;;5.25;3.25;;;20.40;99.90;;;;;;4845221;29;20049;-84
2022/08/25 03:15:15;;;;;;;9.75;3.90;;;20.30;99.90;;;;;;4829705;29;20156;-86
2022/08/25 03:17:42;;;;;;;9.88;4.20;;;20.30;99.90;;;;;;4846439;29;20092;-86
2022/08/25 03:20:08;;;;;;;6.10;4.22;;;20.30;99.90;;;;;;4829546;29;20080;-86
2022/08/25 03:22:35;;;;;;;5.22;3.92;;;20.30;99.90;;;;;;4814327;29;20042;-84
2022/08/25 03:27:45;;;;;;;6.50;3.70;;;20.30;99.90;;;;;;4829462;29;20098;-85
2022/08/25 03:30:12;;;;;;;8.45;3.75;;;20.20;99.90;;;;;;4829432;29;20045;-85
2022/08/25 03:32:38;;;;;;;8.20;3.83;;;20.20;99.90;;;;;;4845815;29;20080;-85
2022/08/25 03:35:04;;;;;;;7.75;3.70;;;20.20;99.90;;;;;;4829276;29;20049;-85
2022/08/25 03:37:30;;;;;;;5.07;3.55;;;20.20;99.90;;;;;;4829197;29;20083;-83
2022/08/25 03:39:55;;;;;;;5.65;3.47;;;20.20;99.90;;;;;;4828708;29;20099;-84
2022/08/25 03:42:21;;;;;;;11.52;3.78;;;20.20;99.90;;;;;;4814253;29;20045;-84
2022/08/25 03:44:48;;;;;;;5.65;3.50;;;20.20;99.90;;;;;;4829534;29;20061;-84
2022/08/25 03:47:13;;;;;;;9.80;3.65;;;20.20;99.90;;;;;;4845763;29;20077;-84
2022/08/25 03:49:39;;;;;;;7.18;3.60;;;20.20;99.90;;;;;;4845994;29;20142;-84
2022/08/25 03:52:05;;;;;;;7.47;3.83;;;20.20;99.90;;;;;;4829223;29;20081;-84
2022/08/25 03:54:30;;;;;;;9.68;3.63;;;20.20;99.90;;;;;;4844372;29;20487;-84
2022/08/25 03:56:56;;;;;;;7.47;3.95;;;20.20;99.90;;;;;;4829304;29;20505;-84
2022/08/25 03:59:22;;;;;;;10.80;4.38;;;20.10;99.90;;;;;;4829076;29;20435;-84
2022/08/25 04:01:48;;;;;;;8.90;3.45;;;20.10;99.90;;;;;;4845331;29;20497;-83
2022/08/25 04:04:15;;;;;;;6.05;3.42;;;20.10;99.90;;;;;;4829036;29;20089;-84
2022/08/25 04:06:42;;;;;;;9.43;3.55;;;20.10;99.90;;;;;;4845361;29;20046;-84
2022/08/25 04:09:08;;;;;;;9.43;3.50;;;20.10;99.90;;;;;;4845873;29;20489;-84
2022/08/25 04:11:35;;;;;;;6.88;3.42;;;20.10;99.90;;;;;;4828999;29;20038;-84
2022/08/25 04:14:01;;;;;;;8.07;3.92;;;20.10;99.90;;;;;;4845182;29;20071;-86
2022/08/25 04:16:32;;;;;;;5.88;3.45;;;20.10;99.90;;;;;;4828744;29;20099;-85
2022/08/25 04:19:01;;;;;;;5.53;3.15;;;20.10;99.90;;;;;;4845204;29;20046;-83
2022/08/25 04:21:27;;;;;;;6.85;3.78;;;20.00;99.90;;;;;;4828914;29;20410;-84
2022/08/25 04:23:54;;;;;;;9.05;3.55;;;20.00;99.90;;;;;;4828377;29;20057;-83
2022/08/25 04:26:28;;;;;;;6.13;3.35;;;20.00;99.90;;;;;;4828382;29;20057;-85
2022/08/25 04:28:56;;;;;;;7.75;3.80;;;20.00;99.90;;;;;;4828385;29;20056;-84
2022/08/25 04:31:21;;;;;;;6.10;3.65;;;20.00;99.90;;;;;;4828445;29;20082;-84
2022/08/25 04:33:47;;;;;;;6.72;3.90;;;20.00;99.90;;;;;;4845148;29;20042;-85
2022/08/25 04:36:15;;;;;;;7.93;4.15;;;20.00;99.90;;;;;;4844704;29;20521;-84
2022/08/25 04:38:41;;;;;;;6.38;3.95;;;19.90;99.90;;;;;;4828560;29;20050;-86
2022/08/25 04:41:10;;;;;;;9.60;3.70;;;19.90;99.90;;;;;;4828261;29;20406;-83
2022/08/25 04:43:38;;;;;;;5.57;3.38;;;19.90;99.90;;;;;;4828292;29;20185;-85
2022/08/25 04:46:15;;;;;;;9.23;3.80;;;19.90;99.90;;;;;;4828482;29;20439;-85
2022/08/25 04:48:41;;;;;;;8.63;3.80;;;19.80;99.90;;;;;;4844832;29;20497;-84
2022/08/25 04:51:10;;;;;;;7.13;4.00;;;19.90;99.90;;;;;;4828118;29;20079;-85
2022/08/25 04:53:37;;;;;;;8.63;3.90;;;19.90;99.90;;;;;;4828017;29;20046;-84
2022/08/25 04:56:09;;;;;;;5.60;3.40;;;19.80;99.90;;;;;;4827807;29;20057;-84
2022/08/25 04:58:36;;;;;;;7.60;4.32;;;19.80;99.90;;;;;;4844388;29;20042;-84
2022/08/25 05:01:07;;;;;;;5.20;3.80;;;19.70;99.90;;;;;;4827618;29;20074;-83
2022/08/25 05:03:33;;;;;;;6.97;4.00;;;19.70;99.90;;;;;;4827874;29;20578;-84
2022/08/25 05:06:00;;;;;;;7.53;3.97;;;19.70;99.90;;;;;;4844374;29;20049;-85
2022/08/25 05:08:26;;;;;;;7.15;3.75;;;19.70;99.90;;;;;;4827893;29;20041;-85
2022/08/25 05:10:53;;;;;;;6.57;3.42;;;19.70;99.90;;;;;;4827694;29;20053;-85
2022/08/25 05:13:20;;;;;;;5.53;3.90;;;19.70;99.90;;;;;;4827711;29;20054;-83
2022/08/25 05:15:54;;;;;;;7.63;3.60;;;19.70;99.90;;;;;;4827516;29;20052;-85
2022/08/25 05:18:22;;;;;;;9.93;4.63;;;19.70;99.90;;;;;;4827037;29;20052;-84
2022/08/25 05:20:48;;;;;;;10.63;3.25;;;19.70;99.90;;;;;;4827587;29;20125;-85
2022/08/25 05:23:14;;;;;;;5.68;4.15;;;19.70;99.90;;;;;;4844029;29;20049;-84
2022/08/25 05:25:41;;;;;;;9.25;3.78;;;19.70;99.90;;;;;;4812416;29;20133;-83
2022/08/25 05:28:07;;;;;;;6.80;3.40;;;19.70;99.90;;;;;;4843844;29;20124;-85
2022/08/25 05:30:33;;;;;;;13.35;3.63;;;19.70;99.90;;;;;;4843985;29;20064;-86
2022/08/25 05:32:59;;;;;;;9.80;3.38;;;19.70;99.90;;;;;;4828669;29;20466;-84
2022/08/25 05:35:24;;;;;;;9.68;3.90;;;19.70;99.90;;;;;;4827389;29;20510;-85
2022/08/25 05:37:50;;;;;;;6.07;3.40;;;19.70;99.90;;;;;;4827236;29;20050;-84
2022/08/25 05:40:15;;;;;;;7.28;3.60;;;19.70;99.90;;;;;;4827364;29;20053;-84
2022/08/25 05:42:41;;;;;;;7.32;3.55;;;19.80;99.90;;;;;;4827415;29;20053;-84
2022/08/25 05:45:08;;;;;;;8.50;3.67;;;19.80;99.90;;;;;;4827445;29;20049;-85
2022/08/25 05:47:34;;;;;;;9.25;3.80;;;19.80;99.90;;;;;;4827354;29;20142;-84
2022/08/25 05:50:00;;;;;;;5.32;3.25;;;19.80;99.90;;;;;;4827357;29;20087;-84
2022/08/25 05:52:27;;;;;;;8.48;3.72;;;19.80;99.90;;;;;;4827461;29;20114;-86
2022/08/25 05:54:53;;;;;;;7.78;3.60;;;19.80;99.90;;;;;;4848052;29;20053;-83
2022/08/25 05:57:19;;;;;;;9.80;3.90;;;19.80;99.90;;;;;;4852425;29;20406;-83
2022/08/25 05:59:44;;;;;;;7.47;3.83;;;19.90;99.90;;;;;;4837078;29;20080;-84
2022/08/25 06:04:54;;;;;;;8.15;4.22;;;19.90;99.90;;;;;;4845203;29;20088;-84
2022/08/25 06:07:20;;;;;;;8.73;3.72;;;20.00;99.90;;;;;;4828155;29;20407;-84
2022/08/25 06:09:47;;;;;;;6.30;3.75;;;20.00;99.90;;;;;;4827754;29;20494;-86
2022/08/25 06:12:13;;;;;;;6.63;3.80;;;20.00;99.90;;;;;;4827736;29;20110;-83
2022/08/25 06:14:39;;;;;;;8.68;4.03;;;20.10;99.90;;;;;;4844721;29;20129;-84
2022/08/25 06:17:05;;;;;;;7.35;3.38;;;20.10;99.90;;;;;;4827810;29;20089;-85
2022/08/25 06:19:31;;;;;;;5.95;3.33;;;20.20;99.90;;;;;;4844191;29;20038;-84
2022/08/25 06:21:57;;;;;;;7.78;3.20;;;20.10;99.90;;;;;;4826719;29;20054;-85
2022/08/25 06:24:27;;;;;;;8.77;3.75;;;20.20;99.90;;;;;;4826858;29;20053;-86
2022/08/25 06:26:53;;;;;;;7.40;3.42;;;20.20;99.90;;;;;;4841815;29;20483;-85
2022/08/25 06:29:20;;;;;;;10.25;3.92;;;20.30;99.90;;;;;;4845378;29;20117;-84
2022/08/25 06:31:46;;;;;;;7.35;3.88;;;20.30;99.90;;;;;;4830154;29;20042;-84
2022/08/25 06:34:12;;;;;;;8.07;4.18;;;20.40;99.90;;;;;;4846555;29;20042;-84
2022/08/25 06:36:39;;;;;;;7.32;3.40;;;20.40;99.90;;;;;;4845803;29;20515;-83
2022/08/25 06:39:05;;;;;;;6.70;3.50;;;20.40;99.90;;;;;;4830303;29;20049;-83
2022/08/25 06:41:31;;;;;;;7.10;3.90;;;20.50;99.90;;;;;;4830420;29;20065;-85
2022/08/25 06:43:57;;;;;;;6.68;3.88;;;20.60;99.90;;;;;;4830235;29;20041;-84
2022/08/25 06:46:26;;;;;;;6.90;3.65;;;20.60;99.90;;;;;;4847408;29;20060;-85
2022/08/25 06:48:56;;;;;;;6.63;3.35;;;20.60;99.90;;;;;;4830280;29;20490;-84
2022/08/25 06:51:23;;;;;;;9.15;3.42;;;20.70;99.90;;;;;;4830359;29;20062;-84
2022/08/25 06:53:51;;;;;;;4.93;3.28;;;20.80;99.90;;;;;;4830179;29;20046;-84
2022/08/25 06:56:18;;;;;;;10.57;3.50;;;20.80;99.90;;;;;;4830049;29;20046;-85
2022/08/25 06:58:44;;;;;;;5.45;3.47;;;20.90;99.90;;;;;;4846692;29;20094;-84
2022/08/25 07:01:12;;;;;;;8.77;3.70;;;21.00;99.90;;;;;;4846997;29;20428;-84
2022/08/25 07:03:38;;;;;;;9.20;3.70;;;21.00;99.90;;;;;;4829682;29;20079;-83
2022/08/25 07:06:04;;;;;;;13.07;3.88;;;21.10;99.90;;;;;;4829906;29;20096;-85
2022/08/25 07:08:30;;;;;;;10.90;3.90;;;21.20;99.90;;;;;;4846684;29;20034;-86
2022/08/25 07:10:56;;;;;;;8.75;3.65;;;21.20;99.90;;;;;;4814551;29;20038;-85
2022/08/25 07:13:22;;;;;;;6.55;3.70;;;21.30;99.90;;;;;;4829749;29;20042;-84
2022/08/25 07:15:53;;;;;;;7.93;3.92;;;21.30;99.90;;;;;;4846134;29;20049;-84
2022/08/25 07:18:18;;;;;;;10.27;4.07;;;21.40;99.90;;;;;;4846540;29;20054;-85
2022/08/25 07:20:44;;;;;;;6.47;3.55;;;21.50;99.90;;;;;;4829109;29;20150;-84
2022/08/25 07:23:10;;;;;;;12.35;3.90;;;21.50;99.90;;;;;;4829518;29;20133;-85
2022/08/25 07:25:35;;;;;;;9.35;3.35;;;21.60;99.90;;;;;;4846064;29;20046;-82
2022/08/25 07:28:02;;;;;;;9.65;4.07;;;21.60;99.90;;;;;;4830027;29;20539;-84
2022/08/25 07:30:28;;;;;;;8.57;3.38;;;21.70;99.90;;;;;;4829247;29;20054;-85
2022/08/25 07:32:54;;;;;;;7.70;3.85;;;21.80;99.90;;;;;;4829473;29;20064;-84
2022/08/25 07:35:22;;;;;;;8.43;4.10;;;21.90;99.90;;;;;;4829330;29;20054;-85
2022/08/25 07:37:56;;;;;;;9.25;3.80;;;21.90;99.90;;;;;;4829806;29;20099;-84
2022/08/25 07:40:28;;;;;;;12.27;3.63;;;22.10;99.90;;;;;;4828540;29;20086;-85
2022/08/25 07:42:56;;;;;;;12.75;3.72;;;22.10;99.90;;;;;;4846319;29;20077;-85
2022/08/25 07:45:29;;;;;;;9.07;4.07;;;22.30;99.90;;;;;;4829906;29;20054;-86
2022/08/25 07:47:57;;;;;;;11.80;3.45;;;22.30;99.90;;;;;;4829515;29;20140;-86
2022/08/25 07:50:23;;;;;;;7.72;3.30;;;22.40;99.90;;;;;;4829172;29;20053;-84
2022/08/25 07:52:50;;;;;;;11.00;3.40;;;22.50;99.90;;;;;;4829205;29;20085;-85
2022/08/25 07:55:16;;;;;;;10.82;3.53;;;22.60;99.90;;;;;;4828987;29;20053;-84
2022/08/25 07:57:41;;;;;;;9.27;3.45;;;22.80;99.90;;;;;;4845726;29;20042;-84
2022/08/25 08:00:09;;;;;;;6.35;3.03;;;22.90;99.90;;;;;;4846141;29;20121;-86
2022/08/25 08:02:38;;;;;;;11.63;3.40;;;23.00;99.90;;;;;;4829059;29;20623;-84
2022/08/25 08:05:04;;;;;;;9.55;3.45;;;23.10;99.90;;;;;;4846077;29;20049;-84
2022/08/25 08:07:30;;;;;;;10.43;3.78;;;23.10;99.90;;;;;;4829428;29;20059;-86
2022/08/25 08:09:56;;;;;;;10.18;3.13;;;23.30;99.90;;;;;;4829351;29;20129;-84
2022/08/25 08:12:23;;;;;;;15.40;3.47;;;23.30;99.90;;;;;;4829084;29;20046;-85
2022/08/25 08:14:49;;;;;;;8.73;3.25;;;23.40;99.90;;;;;;4813827;29;20559;-83
2022/08/25 08:17:15;;;;;;;7.32;3.53;;;23.60;99.90;;;;;;4813911;29;20483;-83
2022/08/25 08:19:41;;;;;;;7.60;3.40;;;23.70;99.90;;;;;;4828619;29;20049;-84
2022/08/25 08:22:07;;;;;;;6.63;3.30;;;23.90;99.90;;;;;;4829225;29;20122;-83
2022/08/25 08:24:37;;;;;;;7.88;3.03;;;24.00;99.90;;;;;;4828695;29;20376;-85
2022/08/25 08:27:05;;;;;;;8.05;3.20;;;24.10;99.90;;;;;;4845535;29;20167;-85
2022/08/25 08:29:31;;;;;;;9.65;3.00;;;24.20;99.90;;;;;;4828807;29;20457;-84
2022/08/25 08:31:57;;;;;;;4.85;2.90;;;24.30;99.90;;;;;;4828408;29;20054;-86
2022/08/25 08:34:23;;;;;;;6.68;3.15;;;24.40;99.90;;;;;;4828620;29;20102;-85
2022/08/25 08:36:49;;;;;;;7.43;3.30;;;24.60;99.90;;;;;;4814623;29;20046;-86
2022/08/25 08:39:14;;;;;;;8.15;2.80;;;24.70;99.90;;;;;;4813676;29;20049;-87
2022/08/25 08:44:45;;;;;;;9.50;3.00;;;24.80;99.90;;;;;;4828725;29;20083;-87
2022/08/25 08:47:29;;;;;;;5.50;2.75;;;25.00;99.90;;;;;;4828789;29;20068;-87
2022/08/25 08:50:13;;;;;;;6.55;2.78;;;25.10;99.90;;;;;;4828929;29;20455;-85
2022/08/25 08:52:46;;;;;;;7.43;3.00;;;25.30;99.90;;;;;;4843724;29;20091;-82
2022/08/25 08:55:34;;;;;;;6.35;2.63;;;25.40;99.90;;;;;;4828205;29;20126;-83
2022/08/25 08:58:05;;;;;;;6.85;2.85;;;25.50;99.90;;;;;;4828725;29;20079;-87
2022/08/25 09:00:36;;;;;;;5.88;2.65;;;25.70;99.90;;;;;;4845201;29;20085;-85
2022/08/25 09:03:08;;;;;;;9.05;2.58;;;25.80;99.90;;;;;;4828159;29;20046;-82
2022/08/25 09:05:49;;;;;;;9.10;2.70;;;26.00;99.90;;;;;;4828875;29;20499;-83
2022/08/25 09:08:16;;;;;;;7.82;2.70;;;26.10;99.90;;;;;;4828948;29;20474;-85
2022/08/25 09:11:10;;;;;;;5.57;2.53;;;26.30;99.90;;;;;;4844389;29;20156;-83
2022/08/25 09:13:55;;;;;;;5.93;2.42;;;26.50;99.90;;;;;;4844388;29;20545;-85
2022/08/25 09:16:53;;;;;;;6.40;2.25;;;26.60;99.90;;;;;;4829292;29;20408;-86
2022/08/25 09:19:41;;;;;;;3.20;1.90;;;26.80;99.90;;;;;;4828178;29;20057;-85
2022/08/25 09:22:25;;;;;;;5.60;2.50;;;27.00;99.90;;;;;;4828081;29;20375;-85
2022/08/25 09:25:14;;;;;;;8.40;2.57;;;27.20;99.90;;;;;;4828202;29;20077;-85
2022/08/25 09:28:03;;;;;;;9.25;2.55;;;27.30;99.90;;;;;;4844307;29;20049;-85
2022/08/25 09:30:56;;;;;;;5.80;2.03;;;27.50;99.70;;;;;;4828007;29;20085;-84
2022/08/25 09:33:24;;;;;;;5.95;2.50;;;27.70;99.80;;;;;;4844130;29;20491;-84
2022/08/25 09:35:52;;;;;;;3.00;1.83;;;27.80;99.10;;;;;;4827655;29;20057;-83
2022/08/25 09:38:18;;;;;;;6.63;2.20;;;27.90;98.60;;;;;;4827453;29;20038;-85
2022/08/25 09:40:54;;;;;;;8.68;2.40;;;28.00;98.40;;;;;;4827518;29;20062;-84
2022/08/25 09:43:30;;;;;;;5.30;2.08;;;28.20;97.90;;;;;;4844424;29;20042;-85
2022/08/25 09:46:13;;;;;;;3.80;2.00;;;28.40;96.40;;;;;;4827329;29;20060;-85
2022/08/25 09:48:47;;;;;;;4.45;2.15;;;28.40;95.30;;;;;;4843634;29;20073;-85
2022/08/25 09:51:29;;;;;;;9.02;1.98;;;28.50;94.20;;;;;;4843683;29;20125;-85
2022/08/25 09:53:59;;;;;;;4.57;1.73;;;28.60;93.00;;;;;;4842602;29;20050;-85
2022/08/25 09:56:31;;;;;;;5.72;2.10;;;28.70;92.80;;;;;;4844264;29;20050;-84
2022/08/25 09:59:19;;;;;;;5.90;2.20;;;28.80;92.30;;;;;;4843046;29;20081;-86
2022/08/25 10:01:59;;;;;;;9.23;2.10;;;29.00;92.60;;;;;;4843673;29;20125;-86
2022/08/25 10:04:32;;;;;;;6.50;1.98;;;29.10;92.60;;;;;;4826630;29;20060;-85
2022/08/25 10:07:01;;;;;;;4.18;2.25;;;29.20;91.60;;;;;;4843851;29;20152;-86
2022/08/25 10:09:33;;;;;;;4.45;2.10;;;29.30;91.20;;;;;;4843883;29;20049;-85
2022/08/25 10:12:01;;;;;;;5.30;2.03;;;29.40;89.40;;;;;;4843706;29;20455;-85
2022/08/25 10:14:30;;;;;;;4.53;2.22;;;29.50;89.10;;;;;;4842207;29;20041;-83
2022/08/25 10:17:30;;;;;;;10.48;2.10;;;29.50;83.90;;;;;;4826648;29;20518;-84
2022/08/25 10:20:16;;;;;;;7.05;1.88;;;29.60;81.40;;;;;;4827751;29;20042;-85
2022/08/25 10:22:43;;;;;;;10.00;2.40;;;29.60;79.10;;;;;;4843475;29;20050;-82
2022/08/25 10:25:11;;;;;;;6.18;1.73;;;29.70;78.60;;;;;;4843757;29;20110;-84
2022/08/25 10:28:11;;;;;;;12.68;2.03;;;29.80;76.40;;;;;;4843193;29;20042;-85
2022/08/25 10:30:49;;;;;;;6.25;1.63;;;29.80;76.60;;;;;;4827083;29;20046;-83
2022/08/25 10:33:32;;;;;;;4.40;2.00;;;29.80;75.30;;;;;;4827435;29;20050;-85
2022/08/25 10:36:01;;;;;;;4.45;2.20;;;30.00;78.10;;;;;;4827235;29;20142;-85
2022/08/25 10:38:42;;;;;;;6.75;2.38;;;30.10;78.00;;;;;;4827031;29;20118;-85
2022/08/25 10:41:23;;;;;;;5.82;2.10;;;30.10;78.30;;;;;;4827192;29;20389;-85
2022/08/25 10:47:34;;;;;;;6.50;2.20;;;30.30;79.50;;;;;;4843194;29;20420;-84
2022/08/25 10:50:28;;;;;;;5.40;1.98;;;30.50;75.70;;;;;;4826944;29;20402;-86
2022/08/25 10:53:06;;;;;;;6.30;1.90;;;30.50;74.10;;;;;;4826402;29;20538;-84
2022/08/25 10:55:54;;;;;;;5.78;2.05;;;30.60;73.00;;;;;;4826637;29;20038;-83
2022/08/25 10:58:26;;;;;;;6.13;2.38;;;30.60;73.40;;;;;;4826412;29;20482;-85
2022/08/25 11:01:08;;;;;;;7.93;2.60;;;30.60;74.20;;;;;;4842663;29;20471;-83
2022/08/25 11:03:49;;;;;;;6.80;1.98;;;30.70;74.40;;;;;;4842624;29;20549;-83
2022/08/25 11:06:37;;;;;;;7.05;1.88;;;30.80;72.20;;;;;;4842550;29;20088;-83
2022/08/25 11:09:09;;;;;;;4.80;2.20;;;30.90;71.30;;;;;;4842612;29;20098;-82
2022/08/25 11:12:01;;;;;;;4.05;2.03;;;30.90;70.30;;;;;;4841079;29;20079;-83
2022/08/25 11:14:27;;;;;;;4.85;2.00;;;31.00;70.70;;;;;;4826115;29;20045;-84
2022/08/25 11:16:57;;;;;;;6.57;2.20;;;31.00;70.20;;;;;;4828593;29;20521;-85
2022/08/25 11:19:35;;;;;;;4.05;1.88;;;31.10;69.30;;;;;;4846312;29;20045;-84
2022/08/25 11:22:15;;;;;;;4.60;1.85;;;31.20;68.50;;;;;;4829577;29;20046;-85
2022/08/25 11:24:47;;;;;;;5.07;1.90;;;31.20;67.50;;;;;;4829581;29;20415;-84
2022/08/25 11:27:19;;;;;;;5.88;2.00;;;31.30;67.90;;;;;;4846663;29;20056;-85
2022/08/25 11:30:14;;;;;;;5.22;1.95;;;31.30;67.50;;;;;;4846381;29;20537;-86
2022/08/25 11:32:45;;;;;;;6.15;2.08;;;31.40;67.10;;;;;;4826040;29;20570;-86
2022/08/25 11:35:13;;;;;;;5.78;2.65;;;31.50;67.20;;;;;;4814068;29;20084;-87
2022/08/25 11:38:05;;;;;;;4.90;2.00;;;31.50;66.20;;;;;;4845954;29;20045;-85
2022/08/25 11:40:39;;;;;;;4.30;2.10;;;31.50;67.00;;;;;;4830323;29;20048;-84
2022/08/25 11:43:42;;;;;;;5.10;2.30;;;31.60;67.20;;;;;;4846018;29;20050;-83
2022/08/25 11:46:16;;;;;;;3.88;2.22;;;31.60;66.00;;;;;;4842005;29;20049;-84
2022/08/25 11:48:51;;;;;;;3.17;1.83;;;31.60;64.80;;;;;;4845953;29;20075;-84
2022/08/25 11:51:33;;;;;;;3.45;2.00;;;31.60;63.80;;;;;;4829536;29;20050;-85
2022/08/25 11:54:23;;;;;;;4.90;2.00;;;31.70;65.90;;;;;;4829365;29;20041;-85
2022/08/25 11:57:01;;;;;;;3.00;1.92;;;31.80;65.60;;;;;;4844752;29;20391;-84
2022/08/25 11:59:48;;;;;;;9.35;2.20;;;31.90;66.00;;;;;;4829002;29;20046;-83
2022/08/25 12:02:47;;;;;;;4.85;2.00;;;32.00;65.70;;;;;;4828785;29;20042;-83
2022/08/25 12:05:16;;;;;;;4.97;2.03;;;32.20;64.00;;;;;;4790330;29;20518;-84
2022/08/25 12:11:00;;;;;;;3.35;1.67;;;32.10;62.10;;;;;;4829031;29;20053;-81
2022/08/25 12:13:41;;;;;;;6.65;1.95;;;32.20;61.20;;;;;;4845469;29;20050;-86
2022/08/25 12:16:27;;;;;;;3.13;1.80;;;32.20;61.30;;;;;;4845645;29;20054;-85
2022/08/25 12:18:53;;;;;;;3.65;2.00;;;32.10;60.90;;;;;;4845813;29;20054;-83
2022/08/25 12:21:30;;;;;;;2.90;1.90;;;32.10;61.40;;;;;;4845756;29;20081;-84
2022/08/25 12:24:02;;;;;;;2.97;1.70;;;32.10;61.40;;;;;;4829381;29;20100;-84
2022/08/25 12:26:47;;;;;;;5.95;1.80;;;32.10;60.80;;;;;;4829006;29;20046;-84
2022/08/25 12:29:15;;;;;;;5.05;1.55;;;32.30;61.10;;;;;;4829493;29;20439;-85
2022/08/25 12:32:01;;;;;;;3.70;1.58;;;32.40;60.60;;;;;;4828631;29;20490;-85
2022/08/25 12:34:48;;;;;;;4.35;1.60;;;32.50;58.80;;;;;;4829534;29;20523;-85
2022/08/25 12:37:17;;;;;;;4.43;1.90;;;32.60;58.60;;;;;;4846193;29;20049;-82
2022/08/25 12:39:49;;;;;;;6.15;1.95;;;32.70;58.80;;;;;;4829429;29;20064;-85
2022/08/25 12:42:28;;;;;;;3.97;1.77;;;32.60;57.90;;;;;;4844102;29;20046;-85
2022/08/25 12:45:30;;;;;;;4.07;1.80;;;32.50;58.00;;;;;;4844116;29;20487;-84
2022/08/25 12:48:27;;;;;;;4.95;1.80;;;32.60;59.60;;;;;;4845155;29;20049;-85
2022/08/25 12:51:20;;;;;;;4.47;1.90;;;32.70;59.30;;;;;;4843393;29;20495;-85
2022/08/25 12:54:00;;;;;;;4.47;1.70;;;32.70;58.40;;;;;;4828706;29;20110;-85
2022/08/25 12:56:35;;;;;;;3.83;1.67;;;32.60;58.10;;;;;;4829106;29;20054;-86
2022/08/25 12:59:15;;;;;;;5.53;1.90;;;32.70;58.00;;;;;;4812996;29;20410;-85
2022/08/25 13:02:06;;;;;;;5.10;1.77;;;32.70;57.90;;;;;;4844733;29;20396;-83
2022/08/25 13:04:40;;;;;;;4.40;1.80;;;32.70;56.20;;;;;;4828678;29;20046;-85
2022/08/25 13:07:20;;;;;;;;;;;32.70;56.30;;;;;;4829040;29;20071;-85
2022/08/25 13:10:16;;;;;;;4.05;1.80;;;32.70;55.90;;;;;;4828129;29;19924;-87
2022/08/25 13:13:07;;;;;;;4.88;2.00;;;32.60;56.90;;;;;;4829046;29;20473;-85
2022/08/25 13:15:39;;;;;;;4.03;1.73;;;32.70;57.20;;;;;;4828432;29;20045;-84
2022/08/25 13:18:18;;;;;;;3.50;2.17;;;32.70;56.20;;;;;;4828026;29;20058;-85
2022/08/25 13:20:45;;;;;;;2.40;1.50;;;32.80;55.70;;;;;;4844700;29;20041;-84
2022/08/25 13:23:11;;;;;;;4.00;1.98;;;32.80;55.30;;;;;;4844596;29;20041;-84
2022/08/25 13:25:49;;;;;;;3.40;1.70;;;32.80;55.90;;;;;;4827717;29;20122;-83
2022/08/25 13:28:29;;;;;;;4.30;1.55;;;32.90;55.10;;;;;;4827966;29;20056;-84
2022/08/25 13:31:21;;;;;;;3.58;1.70;;;32.80;55.30;;;;;;4844091;29;20137;-84
2022/08/25 13:34:01;;;;;;;4.97;1.60;;;32.90;55.10;;;;;;4844166;29;20190;-84
2022/08/25 13:39:16;;;;;;;4.03;1.60;;;32.90;54.30;;;;;;4827953;29;20084;-85
2022/08/25 13:41:54;;;;;;;7.85;1.50;;;32.90;53.80;;;;;;4844110;29;20491;-84
2022/08/25 13:44:22;;;;;;;4.70;1.67;;;32.90;54.80;;;;;;4844281;29;20042;-83
2022/08/25 13:47:03;;;;;;;2.72;1.73;;;32.90;53.40;;;;;;4812056;29;20056;-84
2022/08/25 13:49:28;;;;;;;4.22;1.70;;;32.80;53.30;;;;;;4843914;29;20053;-85
2022/08/25 13:51:55;;;;;;;3.08;1.30;;;32.80;53.50;;;;;;4843826;29;20398;-83
2022/08/25 13:54:30;;;;;;;3.33;1.30;;;32.90;52.90;;;;;;4843730;29;20511;-87
2022/08/25 13:57:13;;;;;;;2.70;1.40;;;33.00;53.60;;;;;;4844242;29;20487;-85
2022/08/25 13:59:41;;;;;;;5.70;1.80;;;33.10;53.30;;;;;;4828156;29;20494;-87
2022/08/25 14:02:10;;;;;;;2.95;1.73;;;33.10;53.00;;;;;;4844702;29;20417;-85
2022/08/25 14:04:38;;;;;;;4.80;1.75;;;33.00;53.00;;;;;;4827686;29;20077;-84
2022/08/25 14:07:27;;;;;;;3.83;1.95;;;33.00;53.00;;;;;;4828163;29;20060;-86
2022/08/25 14:09:59;;;;;;;5.18;1.65;;;33.10;54.70;;;;;;4827953;29;20049;-86
2022/08/25 14:12:39;;;;;;;2.63;1.35;;;33.10;52.80;;;;;;4844091;29;20056;-85
2022/08/25 14:15:10;;;;;;;2.45;1.40;;;33.20;52.60;;;;;;4827890;29;20046;-85
2022/08/25 14:17:39;;;;;;;4.65;1.38;;;33.20;52.60;;;;;;4827985;29;20053;-85
2022/08/25 14:20:33;;;;;;;5.90;1.75;;;33.20;53.00;;;;;;4827677;29;20056;-86
2022/08/25 14:23:11;;;;;;;6.60;1.83;;;33.20;52.70;;;;;;4839588;29;20099;-85
2022/08/25 14:25:38;;;;;;;3.28;1.60;;;33.10;53.60;;;;;;4828846;29;20109;-84
2022/08/25 14:28:09;;;;;;;5.70;1.60;;;33.10;53.00;;;;;;4827890;29;20097;-86
2022/08/25 14:30:41;;;;;;;3.88;1.70;;;33.10;52.80;;;;;;4844333;29;20061;-85
2022/08/25 14:33:08;;;;;;;4.53;1.60;;;33.00;52.50;;;;;;4844206;29;20046;-86
2022/08/25 14:35:34;;;;;;;11.95;2.03;;;32.90;52.40;;;;;;4827554;29;20101;-84
2022/08/25 14:38:06;;;;;;;4.15;1.50;;;32.90;52.90;;;;;;4827584;29;20101;-84
2022/08/25 14:40:31;;;;;;;4.28;1.75;;;32.90;52.60;;;;;;4827680;29;20138;-84
2022/08/25 14:42:58;;;;;;;3.28;1.50;;;32.80;52.70;;;;;;4828112;29;20102;-84
2022/08/25 14:45:24;;;;;;;3.20;1.45;;;32.80;52.30;;;;;;4827414;29;20103;-84
2022/08/25 14:47:49;;;;;;;4.38;1.70;;;32.80;52.00;;;;;;4827699;29;20100;-86
2022/08/25 14:50:16;;;;;;;2.97;1.30;;;32.70;52.00;;;;;;4829434;29;20046;-81
2022/08/25 14:52:43;;;;;;;2.35;1.50;;;32.70;50.70;;;;;;4847569;29;20051;-83
2022/08/25 14:55:09;;;;;;;3.17;1.50;;;32.70;50.80;;;;;;4830730;29;20046;-84
2022/08/25 14:57:35;;;;;;;4.15;1.40;;;32.60;50.40;;;;;;4831176;29;20057;-85
2022/08/25 15:00:01;;;;;;;3.17;1.50;;;32.60;50.30;;;;;;4830904;29;20042;-85
2022/08/25 15:02:28;;;;;;;3.55;1.60;;;32.40;50.50;;;;;;4830676;29;20049;-86
2022/08/25 15:05:01;;;;;;;5.22;1.48;;;32.40;51.30;;;;;;4847688;29;20517;-84
2022/08/25 15:10:14;;;;;;;5.63;1.73;;;32.40;51.90;;;;;;4831275;29;20613;-85
2022/08/25 15:12:40;;;;;;;4.25;1.83;;;32.30;52.00;;;;;;4831696;29;20065;-84
2022/08/25 15:15:06;;;;;;;3.50;1.33;;;32.40;52.40;;;;;;4847211;29;20129;-84
2022/08/25 15:17:32;;;;;;;2.60;1.40;;;32.50;51.70;;;;;;4831199;29;20141;-85
2022/08/25 15:19:57;;;;;;;5.53;1.48;;;32.50;51.80;;;;;;4830873;29;20085;-87
2022/08/25 15:22:23;;;;;;;3.42;1.60;;;32.50;51.60;;;;;;4815675;29;20050;-85
2022/08/25 15:24:49;;;;;;;2.78;1.33;;;32.50;51.20;;;;;;4846885;29;20078;-83
2022/08/25 15:27:19;;;;;;;4.93;1.60;;;32.50;51.50;;;;;;4830478;29;20418;-85
2022/08/25 15:29:45;;;;;;;2.80;1.40;;;32.50;52.10;;;;;;4831973;29;20065;-83
2022/08/25 15:32:11;;;;;;;3.35;1.50;;;32.50;51.90;;;;;;4830475;29;20050;-84
2022/08/25 15:34:37;;;;;;;2.95;1.40;;;32.50;51.60;;;;;;4847420;29;20049;-82
2022/08/25 15:37:14;;;;;;;3.38;1.50;;;32.50;51.70;;;;;;4830243;29;20057;-85
2022/08/25 15:39:42;;;;;;;4.78;1.60;;;32.50;51.50;;;;;;4830406;29;20054;-86
2022/08/25 15:42:09;;;;;;;4.15;1.48;;;32.40;51.70;;;;;;4830229;29;20050;-85
2022/08/25 15:44:34;;;;;;;3.17;1.40;;;32.50;51.80;;;;;;4846786;29;20058;-86
2022/08/25 15:47:00;;;;;;;2.63;1.70;;;32.50;51.90;;;;;;4846974;29;20046;-86
2022/08/25 15:49:27;;;;;;;3.90;1.70;;;32.40;52.00;;;;;;4830306;29;20049;-86
2022/08/25 15:51:53;;;;;;;6.35;2.08;;;32.40;51.70;;;;;;4830418;29;20046;-81
2022/08/25 15:54:21;;;;;;;3.50;1.45;;;32.30;51.60;;;;;;4845105;29;20042;-83
2022/08/25 15:56:47;;;;;;;3.38;1.70;;;32.10;52.20;;;;;;4830594;29;20078;-85
2022/08/25 15:59:13;;;;;;;3.38;1.73;;;32.10;52.60;;;;;;4846573;29;20100;-84
2022/08/25 16:01:40;;;;;;;3.45;1.55;;;32.10;52.90;;;;;;4845781;29;20052;-84
2022/08/25 16:04:06;;;;;;;3.17;1.83;;;32.20;53.60;;;;;;4846106;29;20053;-85
2022/08/25 16:06:32;;;;;;;4.85;1.90;;;32.30;54.00;;;;;;4829760;29;20566;-84
2022/08/25 16:08:59;;;;;;;5.15;2.00;;;32.30;54.50;;;;;;4846136;29;20399;-85
2022/08/25 16:11:27;;;;;;;5.05;1.98;;;32.20;54.40;;;;;;4846046;29;20121;-86
2022/08/25 16:13:54;;;;;;;5.60;2.17;;;32.20;54.30;;;;;;4829559;29;20101;-86
2022/08/25 16:16:22;;;;;;;3.67;2.05;;;32.20;54.50;;;;;;4828393;29;20049;-85
2022/08/25 16:18:47;;;;;;;5.38;2.08;;;32.10;54.50;;;;;;4828747;29;20042;-85
2022/08/25 16:21:24;;;;;;;6.28;2.10;;;32.00;55.00;;;;;;4813412;29;20048;-85
2022/08/25 16:23:52;;;;;;;3.72;2.08;;;32.00;55.70;;;;;;4845628;29;20045;-85
2022/08/25 16:26:18;;;;;;;3.17;1.85;;;31.90;55.90;;;;;;4828483;29;20050;-86
2022/08/25 16:28:43;;;;;;;6.15;2.30;;;31.90;55.50;;;;;;4828979;29;20053;-84